Condor Express — 9V5373 — position and weather

sailwx.info

Track history (hours):
 
Tides and Currents Weather Stations Pressure Air Temp Water Temp Dewpoint Dewpoint Depression Visibility Wind Speed Wind Dir Waves Ship Positions

Condor Express

Operator: Condor Marine Services

Last reported at 2019-Mar-26 10:46 UTC. Time now 2019-Apr-24 22:08 UTC.
Position N 16°49' E 069°36'.
Warning: this ship's position is 29 days out of date.

Length 235 m; draft 13.5 m.

Type: Cargo ship. MMSI: 563014500.

Date/timePositionNaut miles runAvg speedWind from/ knotsBaromVisibWave heightAir tempDewpointWater temp
2019-Mar-26 10:46N 16°49' E 069°36'310.6
2019-Mar-26 10:30N 16°49' E 069°33'710.3
2019-Mar-26 09:50N 16°47' E 069°26'18310.7
2019-Mar-25 16:43N 16°19' E 066°17'1710.6
2019-Mar-25 15:09N 16°16' E 066°00'7310.9
2019-Mar-25 08:28N 16°05' E 064°45'1111.6
2019-Mar-25 07:34N 16°04' E 064°35'111.6
2019-Mar-25 07:29N 16°04' E 064°34'6911.3
2019-Mar-25 01:23N 15°53' E 063°22'511.6
2019-Mar-25 00:55N 15°52' E 063°17'15511.2
2019-Mar-24 11:08N 15°29' E 060°38'  
Track history (hours):
 
Tides and Currents Weather Stations Pressure Air Temp Water Temp Dewpoint Dewpoint Depression Visibility Wind Speed Wind Dir Waves Ship Positions

Condor Express

Operator: Condor Marine Services

Last reported at 2019-Mar-26 10:46 UTC. Time now 2019-Apr-24 22:08 UTC.
Position N 16°49' E 069°36'.
Warning: this ship's position is 29 days out of date.

Length 235 m; draft 13.5 m.

Type: Cargo ship. MMSI: 563014500.

Date/timePositionNaut miles runAvg speedWind from/ knotsBaromVisibWave heightAir tempDewpointWater temp
2019-Mar-26 10:46N 16°49' E 069°36'310.6
2019-Mar-26 10:30N 16°49' E 069°33'710.3
2019-Mar-26 09:50N 16°47' E 069°26'18310.7
2019-Mar-25 16:43N 16°19' E 066°17'1710.6
2019-Mar-25 15:09N 16°16' E 066°00'7310.9
2019-Mar-25 08:28N 16°05' E 064°45'1111.6
2019-Mar-25 07:34N 16°04' E 064°35'111.6
2019-Mar-25 07:29N 16°04' E 064°34'6911.3
2019-Mar-25 01:23N 15°53' E 063°22'511.6
2019-Mar-25 00:55N 15°52' E 063°17'15511.2
2019-Mar-24 11:08N 15°29' E 060°38'  

Dump ship's entire track history